Terminal Aerodrome Forecast
Issued by NWS

Home | Current Version | Previous Version | Text Only | Print | Product List | Glossary On
Versions: 1 2 3 4 5 6 7 8 9 10 11 12 13 14 15 16 17 18 19 20 21 22 23 24
000
FTAK31 PAFA 280541
TAFAOM
TAF
PAOM 280541Z 2806/2906 09022G32KT 6SM BLSN BKN050
     FM280900 11030G38KT 1/2SM SN BLSN OVC015
     FM281800 16020KT 2SM -SN BKN015=

USA.gov is the U.S. government's official web portal to all federal, state and local government web resources and services.